Terminal Aerodrome Forecast
Issued by NWS

Home | Current Version | Previous Version | Text Only | Print | Product List | Glossary On
Versions: 1 2 3 4 5 6 7 8 9 10 11 12 13 14 15
000
FTUS45 KTFX 291100 RRA
TAFHVR
TAF
KHVR 291145Z 2912/3012 05010KT P6SM BKN060
     FM291800 36010KT P6SM BKN080
     FM300400 33008KT P6SM SCT090=

USA.gov is the U.S. government's official web portal to all federal, state and local government web resources and services.